Time;durP1;ratioP1;P1;durP2;ratioP2;P2;SDS_P1;SDS_P2;PMS_P1;PMS_P2;Temp;Humidity;BMP_temperature;BMP_pressure;BME280_temperature;BME280_humidity;BME280_pressure;Samples;Min_cycle;Max_cycle;Signal;HPM_P1;HPM_P2
2022/03/16 00:01:20;;;;;;;101.90;51.47;;;7.70;77.50;;;;;;10289061;28;20039;-86
2022/03/16 00:06:21;;;;;;;109.40;52.07;;;7.60;77.90;;;;;;10287574;28;20030;-86
2022/03/16 00:11:21;;;;;;;91.47;46.67;;;7.50;78.50;;;;;;10274921;28;20030;-87
2022/03/16 00:16:22;;;;;;;102.50;49.73;;;7.50;79.00;;;;;;10289480;28;20043;-86
2022/03/16 00:21:23;;;;;;;35.97;18.53;;;7.40;80.80;;;;;;10274183;28;20027;-85
2022/03/16 00:26:23;;;;;;;28.60;15.57;;;7.80;80.00;;;;;;10291641;28;20051;-85
2022/03/16 00:31:24;;;;;;;46.37;23.53;;;8.40;77.70;;;;;;10282995;28;20039;-85
2022/03/16 00:36:25;;;;;;;21.13;12.60;;;8.60;77.40;;;;;;10291208;28;20042;-86
2022/03/16 00:41:26;;;;;;;20.83;11.37;;;8.70;77.90;;;;;;10290823;28;20622;-88
2022/03/16 00:46:26;;;;;;;18.47;11.60;;;8.70;77.00;;;;;;10282998;28;20031;-86
2022/03/16 00:51:27;;;;;;;22.00;12.70;;;8.80;76.50;;;;;;10291234;28;20038;-87
2022/03/16 00:56:28;;;;;;;21.27;13.80;;;8.80;76.40;;;;;;10289604;28;20093;-88
2022/03/16 01:01:28;;;;;;;20.97;12.70;;;8.80;76.40;;;;;;10289479;28;20729;-87
2022/03/16 01:06:29;;;;;;;25.70;14.20;;;8.80;76.60;;;;;;10290538;28;20035;-86
2022/03/16 01:11:31;;;;;;;26.03;15.77;;;8.70;77.30;;;;;;10289225;28;20439;-86
2022/03/16 01:16:36;;;;;;;24.83;14.17;;;8.70;77.90;;;;;;10288835;28;20038;-86
2022/03/16 01:21:37;;;;;;;25.50;14.35;;;8.60;78.60;;;;;;10288927;28;20467;-85
2022/03/16 01:26:38;;;;;;;23.27;13.87;;;8.40;78.70;;;;;;10285520;28;20166;-85
2022/03/16 01:31:39;;;;;;;20.97;13.13;;;8.40;79.10;;;;;;10279834;28;20391;-86
2022/03/16 01:36:39;;;;;;;26.07;14.27;;;8.40;79.50;;;;;;10287389;28;20126;-84
2022/03/16 01:41:42;;;;;;;28.13;16.80;;;8.30;80.70;;;;;;10287680;28;20404;-87
2022/03/16 01:46:42;;;;;;;31.77;18.50;;;8.20;81.70;;;;;;10284297;28;20062;-87
2022/03/16 01:51:43;;;;;;;28.30;15.90;;;8.10;83.20;;;;;;10288102;28;20067;-86
2022/03/16 01:56:44;;;;;;;31.47;20.30;;;7.90;85.60;;;;;;10288393;28;20042;-87
2022/03/16 02:01:44;;;;;;;30.40;17.93;;;7.80;89.60;;;;;;10270308;28;20038;-87
2022/03/16 02:06:45;;;;;;;34.33;18.63;;;7.60;92.10;;;;;;10287696;28;20034;-87
2022/03/16 02:11:46;;;;;;;33.53;19.33;;;7.50;98.70;;;;;;10269448;28;20027;-87
2022/03/16 02:16:48;;;;;;;36.03;21.47;;;7.30;99.90;;;;;;10286079;28;20038;-87
2022/03/16 02:21:57;;;;;;;34.83;19.97;;;7.20;99.90;;;;;;10287709;28;20661;-87
2022/03/16 02:26:58;;;;;;;37.27;20.50;;;7.10;99.90;;;;;;10262281;28;20623;-87
2022/03/16 02:31:59;;;;;;;36.43;21.07;;;7.00;99.90;;;;;;10286958;28;20031;-86
2022/03/16 02:37:00;;;;;;;40.73;22.97;;;6.90;99.90;;;;;;10287501;28;20673;-87
2022/03/16 02:42:01;;;;;;;58.83;35.73;;;6.80;99.90;;;;;;10286446;28;20118;-87
2022/03/16 02:47:01;;;;;;;63.97;36.87;;;6.80;99.90;;;;;;10260023;28;20360;-87
2022/03/16 02:52:09;;;;;;;79.03;43.33;;;6.70;99.90;;;;;;10245929;29;20034;-86
2022/03/16 02:57:13;;;;;;;61.50;37.03;;;6.60;99.90;;;;;;10270122;28;20826;-87
2022/03/16 03:02:14;;;;;;;52.40;32.17;;;6.50;99.90;;;;;;10290537;28;20042;-87
2022/03/16 03:07:14;;;;;;;64.90;37.13;;;6.40;99.90;;;;;;10294020;28;20825;-87
2022/03/16 03:12:16;;;;;;;44.60;27.17;;;6.30;99.90;;;;;;10276231;28;20031;-87
2022/03/16 03:17:16;;;;;;;44.60;26.53;;;6.30;99.90;;;;;;10273878;28;20051;-88
2022/03/16 03:22:17;;;;;;;54.00;33.70;;;6.10;99.90;;;;;;10294335;28;20420;-87
2022/03/16 03:27:18;;;;;;;54.23;33.37;;;6.00;99.90;;;;;;10294053;28;20055;-86
2022/03/16 03:32:19;;;;;;;42.27;26.20;;;5.90;99.90;;;;;;10293338;28;20035;-86
2022/03/16 03:37:19;;;;;;;52.17;32.07;;;5.90;99.90;;;;;;10276130;28;20041;-85
2022/03/16 03:42:20;;;;;;;49.33;29.03;;;6.00;99.90;;;;;;10293178;28;20375;-86
2022/03/16 03:47:21;;;;;;;51.00;32.40;;;5.90;99.90;;;;;;10287411;28;20030;-85
2022/03/16 03:52:22;;;;;;;51.23;32.20;;;5.90;99.90;;;;;;10279768;28;20050;-87
2022/03/16 03:57:22;;;;;;;55.93;34.70;;;6.00;99.90;;;;;;10306444;28;20038;-86
2022/03/16 04:02:23;;;;;;;57.70;35.47;;;6.00;99.90;;;;;;10313300;28;20118;-85
2022/03/16 04:07:24;;;;;;;60.13;36.17;;;5.90;99.90;;;;;;10264634;28;20023;-86
2022/03/16 04:12:26;;;;;;;55.77;34.30;;;5.80;99.90;;;;;;10290244;28;20132;-85
2022/03/16 04:17:27;;;;;;;65.13;36.80;;;5.80;99.90;;;;;;10291821;28;20045;-87
2022/03/16 04:22:28;;;;;;;57.50;34.47;;;5.70;99.90;;;;;;10286533;28;20047;-84
2022/03/16 04:27:29;;;;;;;65.93;37.80;;;5.80;99.90;;;;;;10263426;28;20499;-84
2022/03/16 04:32:30;;;;;;;80.67;43.40;;;5.80;99.90;;;;;;10265959;28;20027;-85
2022/03/16 04:37:32;;;;;;;68.73;39.47;;;5.80;99.90;;;;;;10272874;28;20399;-84
2022/03/16 04:42:33;;;;;;;58.93;35.80;;;5.80;99.90;;;;;;10290428;28;20038;-85
2022/03/16 04:47:34;;;;;;;60.57;36.80;;;5.70;99.90;;;;;;10271895;28;20035;-85
2022/03/16 04:52:45;;;;;;;67.67;37.47;;;5.60;99.90;;;;;;10296523;28;20141;-86
2022/03/16 04:57:47;;;;;;;58.93;34.97;;;5.50;99.90;;;;;;10262851;28;20121;-84
2022/03/16 05:02:48;;;;;;;65.57;39.30;;;5.50;99.90;;;;;;10276475;28;20434;-85
2022/03/16 05:07:48;;;;;;;62.63;34.47;;;5.50;99.90;;;;;;10280656;28;20106;-84
2022/03/16 05:12:49;;;;;;;55.60;31.93;;;5.50;99.90;;;;;;10292076;28;20042;-86
2022/03/16 05:17:50;;;;;;;52.30;29.80;;;5.50;99.90;;;;;;10281823;28;20472;-86
2022/03/16 05:22:52;;;;;;;48.07;29.43;;;5.50;99.90;;;;;;10275557;28;20050;-84
2022/03/16 05:27:54;;;;;;;59.27;33.93;;;5.60;99.90;;;;;;10284273;28;20047;-85
2022/03/16 05:32:57;;;;;;;45.70;29.07;;;5.70;99.90;;;;;;10270510;28;20085;-84
2022/03/16 05:37:58;;;;;;;47.07;27.63;;;5.80;99.90;;;;;;10289118;28;20545;-85
2022/03/16 05:42:59;;;;;;;45.83;27.07;;;5.90;99.90;;;;;;10288940;28;20125;-85
2022/03/16 05:47:59;;;;;;;46.67;28.77;;;6.10;99.90;;;;;;10274946;28;20062;-85
2022/03/16 05:53:02;;;;;;;51.33;31.07;;;6.30;99.90;;;;;;10288073;28;20073;-84
2022/03/16 05:58:02;;;;;;;53.47;30.33;;;6.40;99.90;;;;;;10288040;28;20109;-85
2022/03/16 06:03:03;;;;;;;43.87;26.00;;;6.60;99.90;;;;;;10287421;28;20549;-84
2022/03/16 06:08:04;;;;;;;45.03;26.17;;;6.70;99.90;;;;;;10287046;28;20038;-85
2022/03/16 06:13:05;;;;;;;45.17;26.40;;;6.80;99.90;;;;;;10274402;28;20035;-86
2022/03/16 06:18:15;;;;;;;48.33;27.03;;;6.90;99.90;;;;;;10290747;28;20482;-84
2022/03/16 06:42:31;;;;;;;50.67;27.85;;;6.70;99.90;;;;;;9825074;30;20055;-86
2022/03/16 06:47:32;;;;;;;56.60;30.37;;;6.80;99.90;;;;;;9848287;30;20197;-85
2022/03/16 07:20:04;;;;;;;55.00;31.47;;;7.10;99.90;;;;;;11696305;24;20136;-84
2022/03/16 07:30:09;;;;;;;61.07;35.13;;;7.20;99.90;;;;;;10269772;24;20750;-85
2022/03/16 07:41:06;;;;;;;60.17;34.67;;;7.20;99.90;;;;;;10116632;24;20064;-85
2022/03/16 08:14:20;;;;;;;51.30;29.25;;;7.60;99.90;;;;;;9832739;30;20029;-85
2022/03/16 08:20:01;;;;;;;51.67;29.47;;;7.90;99.90;;;;;;9812342;30;20397;-84
2022/03/16 08:42:14;;;;;;;57.38;31.65;;;8.90;94.40;;;;;;9877163;24;20048;-85
2022/03/16 08:59:09;;;;;;;52.07;31.40;;;9.60;91.10;;;;;;11631022;24;20517;-85
2022/03/16 09:16:13;;;;;;;46.30;27.67;;;9.90;82.80;;;;;;9816939;30;20048;-86
2022/03/16 09:27:19;;;;;;;42.17;24.40;;;10.60;75.90;;;;;;10303626;24;20062;-85
2022/03/16 09:49:32;;;;;;;32.60;20.37;;;10.90;65.20;;;;;;9841709;24;20603;-86
2022/03/16 10:00:33;;;;;;;35.13;22.03;;;11.50;63.40;;;;;;9800764;30;20057;-86
2022/03/16 10:39:05;;;;;;;;;;;12.50;59.40;;;;;;9821395;30;20048;-84
2022/03/16 10:55:22;;;;;;;35.85;21.98;;;12.40;59.30;;;;;;10525891;24;20083;-84
2022/03/16 11:00:44;;;;;;;33.53;19.52;;;12.40;59.00;;;;;;9863363;30;20066;-84
2022/03/16 11:17:40;;;;;;;37.75;21.15;;;12.80;60.80;;;;;;9863668;30;20031;-86
2022/03/16 11:29:05;;;;;;;35.55;21.88;;;13.00;58.50;;;;;;9863365;30;20435;-85
2022/03/16 11:40:11;;;;;;;33.33;20.38;;;13.00;58.70;;;;;;9861503;30;20481;-85
2022/03/16 11:45:46;;;;;;;34.58;20.67;;;13.20;58.80;;;;;;9881508;30;20100;-84
2022/03/16 11:56:46;;;;;;;202.90;130.77;;;13.20;57.70;;;;;;9844136;29;20143;-84
2022/03/16 12:02:05;;;;;;;271.02;173.27;;;13.30;58.00;;;;;;9848662;30;20631;-86
2022/03/16 12:07:12;;;;;;;46.10;25.75;;;13.50;56.40;;;;;;9838721;30;20024;-85
2022/03/16 12:28:59;;;;;;;34.92;21.60;;;14.20;54.30;;;;;;11823521;24;20035;-85
2022/03/16 12:34:00;;;;;;;32.15;24.77;;;14.00;53.10;;;;;;9825869;30;20552;-84
2022/03/16 12:39:43;;;;;;;18.58;11.68;;;13.90;53.90;;;;;;9829485;30;20036;-86
2022/03/16 12:45:04;;;;;;;21.15;13.63;;;13.80;54.20;;;;;;9822202;30;20046;-84
2022/03/16 12:50:11;;;;;;;20.50;12.07;;;13.70;54.70;;;;;;9829570;30;20025;-84
2022/03/16 12:55:12;;;;;;;25.73;16.10;;;13.70;55.40;;;;;;9831354;30;20060;-84
2022/03/16 13:06:20;;;;;;;19.23;11.77;;;14.30;54.40;;;;;;9829016;30;20107;-84
2022/03/16 13:11:28;;;;;;;21.25;12.80;;;14.20;54.00;;;;;;9828556;30;20036;-85
2022/03/16 13:46:37;;;;;;;18.15;11.68;;;15.00;54.20;;;;;;9836396;30;20469;-84
2022/03/16 13:52:28;;;;;;;26.98;14.65;;;14.70;54.40;;;;;;9840067;30;20043;-85
2022/03/16 14:14:45;;;;;;;22.17;11.88;;;14.70;54.40;;;;;;10782500;24;20143;-85
2022/03/16 14:20:15;;;;;;;18.38;10.85;;;14.40;53.50;;;;;;9818487;30;20406;-84
2022/03/16 14:25:51;;;;;;;19.13;10.80;;;14.30;51.70;;;;;;9811298;30;20079;-85
2022/03/16 14:30:54;;;;;;;18.07;10.07;;;14.00;52.40;;;;;;9827303;30;20036;-84
2022/03/16 14:36:26;;;;;;;21.98;12.98;;;13.80;53.00;;;;;;9828584;30;20127;-84
2022/03/16 14:41:27;;;;;;;19.75;11.55;;;13.90;53.60;;;;;;9863372;30;20618;-84
2022/03/16 14:46:28;;;;;;;17.10;11.10;;;13.90;52.70;;;;;;9844209;30;20043;-84
2022/03/16 14:51:29;;;;;;;24.48;14.32;;;13.70;52.70;;;;;;9808969;30;20040;-86
2022/03/16 14:56:30;;;;;;;22.35;12.43;;;13.50;54.60;;;;;;9843480;30;20087;-85
2022/03/16 15:01:30;;;;;;;34.67;19.33;;;13.60;54.10;;;;;;9883614;29;20036;-85
2022/03/16 15:06:31;;;;;;;25.00;15.00;;;13.70;55.20;;;;;;9869377;30;20039;-85
2022/03/16 15:11:31;;;;;;;18.92;11.90;;;13.70;54.60;;;;;;9864242;30;20039;-85
2022/03/16 15:17:58;;;;;;;22.02;12.52;;;13.50;53.60;;;;;;9847976;30;20063;-84
2022/03/16 15:22:58;;;;;;;43.20;26.35;;;13.40;53.10;;;;;;9719800;30;20098;-83
2022/03/16 15:45:51;;;;;;;58.50;28.58;;;13.00;54.60;;;;;;9869142;29;20517;-86
2022/03/16 15:56:57;;;;;;;136.95;66.95;;;12.70;56.40;;;;;;9869291;30;20083;-84
2022/03/16 16:07:56;;;;;;;1221.88;644.85;;;12.10;56.30;;;;;;10774616;24;20076;-85
2022/03/16 16:24:19;;;;;;;31.70;15.85;;;11.30;58.00;;;;;;9893228;24;20464;-82
2022/03/16 16:46:45;;;;;;;34.77;17.80;;;9.80;61.60;;;;;;9755519;30;20057;-81
2022/03/16 16:51:46;;;;;;;34.83;19.07;;;9.50;62.50;;;;;;9776922;30;20064;-82
2022/03/16 17:02:43;;;;;;;49.05;25.40;;;8.90;64.10;;;;;;9902373;30;20073;-84
2022/03/16 17:19:51;;;;;;;65.77;31.67;;;8.50;65.00;;;;;;9844083;24;20075;-83
2022/03/16 18:14:37;;;;;;;57.03;31.00;;;7.40;70.10;;;;;;11511773;24;20122;-85
2022/03/16 18:19:39;;;;;;;86.90;44.50;;;7.40;70.70;;;;;;9812401;30;20570;-84
2022/03/16 18:24:41;;;;;;;98.43;48.60;;;7.40;72.10;;;;;;9830148;30;20072;-85
2022/03/16 18:29:43;;;;;;;97.27;49.33;;;7.40;72.10;;;;;;9821265;30;20717;-85
2022/03/16 18:34:44;;;;;;;83.87;43.07;;;7.40;72.30;;;;;;9827583;30;20101;-85
2022/03/16 18:39:44;;;;;;;94.37;43.80;;;7.20;72.60;;;;;;9808101;30;20482;-85
2022/03/16 18:44:46;;;;;;;97.13;46.93;;;7.00;72.80;;;;;;9826552;30;20036;-86
2022/03/16 18:49:49;;;;;;;108.13;55.97;;;7.00;74.00;;;;;;9825796;30;20497;-85
2022/03/16 18:54:50;;;;;;;112.70;58.00;;;6.90;74.80;;;;;;9829610;30;20064;-84
2022/03/16 18:59:51;;;;;;;105.83;55.63;;;6.90;74.40;;;;;;9847402;30;20138;-84
2022/03/16 19:04:52;;;;;;;129.07;61.90;;;6.90;75.00;;;;;;9884189;30;20048;-84
2022/03/16 19:09:53;;;;;;;133.27;63.50;;;6.70;75.20;;;;;;9849188;30;20488;-82
2022/03/16 19:14:54;;;;;;;119.90;58.80;;;6.50;75.80;;;;;;9856766;30;20051;-85
2022/03/16 19:19:58;;;;;;;129.17;64.47;;;6.30;76.10;;;;;;9866167;30;20106;-85
2022/03/16 19:24:59;;;;;;;158.13;75.87;;;6.20;76.50;;;;;;9863256;30;20516;-85
2022/03/16 19:30:00;;;;;;;147.83;70.17;;;6.20;77.60;;;;;;9863541;30;20035;-86
2022/03/16 19:35:01;;;;;;;135.63;65.37;;;6.40;77.50;;;;;;9863378;30;20493;-84
2022/03/16 19:40:02;;;;;;;138.57;69.47;;;6.30;77.70;;;;;;9868474;30;20040;-83
2022/03/16 19:45:07;;;;;;;145.23;70.30;;;5.90;77.70;;;;;;9841585;30;20040;-83
2022/03/16 19:50:08;;;;;;;132.27;62.73;;;5.70;78.60;;;;;;9860082;30;20044;-83
2022/03/16 19:55:09;;;;;;;139.67;67.63;;;5.70;79.30;;;;;;9863626;30;20035;-85
2022/03/16 20:00:10;;;;;;;113.23;52.90;;;5.70;79.30;;;;;;9867598;30;20485;-84
2022/03/16 20:05:11;;;;;;;103.70;51.33;;;5.80;79.50;;;;;;9860761;30;20485;-85
2022/03/16 20:10:12;;;;;;;101.17;50.37;;;5.90;79.70;;;;;;9844731;30;20036;-84
2022/03/16 20:15:13;;;;;;;107.20;50.57;;;5.90;79.70;;;;;;9867822;30;20055;-84
2022/03/16 20:20:13;;;;;;;91.73;45.43;;;5.90;79.30;;;;;;9877777;30;20044;-85
2022/03/16 20:25:14;;;;;;;93.63;46.07;;;6.00;79.50;;;;;;9857846;30;20558;-85
2022/03/16 20:30:17;;;;;;;98.60;47.40;;;5.90;79.80;;;;;;9868323;30;20504;-86
2022/03/16 20:35:18;;;;;;;107.63;52.23;;;6.00;79.60;;;;;;9861344;30;20515;-82
2022/03/16 20:40:19;;;;;;;114.90;58.83;;;6.20;79.10;;;;;;9867690;30;20054;-82
2022/03/16 20:45:20;;;;;;;118.33;57.30;;;6.10;79.00;;;;;;9864380;30;20047;-82
2022/03/16 20:50:21;;;;;;;111.67;54.67;;;5.90;79.30;;;;;;9866267;30;20110;-82
2022/03/16 21:01:22;;;;;;;106.75;53.10;;;5.40;81.00;;;;;;9864730;30;20056;-82
2022/03/16 21:06:23;;;;;;;103.97;49.00;;;5.10;81.70;;;;;;9863180;30;20159;-82
2022/03/16 21:11:24;;;;;;;103.77;49.93;;;5.00;83.30;;;;;;9878711;30;20065;-82
2022/03/16 21:24:02;;;;;;;102.37;48.47;;;4.90;86.60;;;;;;9888998;30;20056;-82
2022/03/16 21:29:38;;;;;;;93.77;46.83;;;4.80;85.40;;;;;;9849530;30;20048;-82
2022/03/16 21:34:38;;;;;;;102.63;48.80;;;4.50;86.60;;;;;;9862885;30;20047;-82
2022/03/16 21:57:38;;;;;;;91.23;44.77;;;4.20;90.40;;;;;;9864737;30;20066;-82
2022/03/16 22:09:15;;;;;;;96.95;44.90;;;4.10;91.50;;;;;;9863545;30;20505;-82
2022/03/16 22:14:17;;;;;;;106.33;46.90;;;4.00;91.50;;;;;;9846470;30;20118;-82
2022/03/16 22:19:20;;;;;;;97.17;47.80;;;3.90;91.80;;;;;;9893413;30;20063;-83
2022/03/16 22:25:10;;;;;;;104.73;48.13;;;3.80;92.80;;;;;;9867835;30;20034;-82
2022/03/16 22:42:09;;;;;;;97.72;47.70;;;3.60;95.70;;;;;;10941383;24;20075;-81
2022/03/16 22:47:25;;;;;;;102.63;50.17;;;3.70;94.70;;;;;;9825601;30;20032;-82
2022/03/16 23:10:40;;;;;;;95.47;49.37;;;3.60;99.90;;;;;;9711374;30;20045;-82
2022/03/16 23:16:06;;;;;;;104.23;49.63;;;3.60;99.10;;;;;;9767710;30;20040;-81
2022/03/16 23:27:51;;;;;;;110.17;51.47;;;3.70;99.90;;;;;;9790379;30;20040;-82
2022/03/16 23:38:59;;;;;;;110.07;53.28;;;3.80;99.90;;;;;;9806402;30;20056;-82
2022/03/16 23:44:00;;;;;;;109.77;53.83;;;3.70;99.90;;;;;;9828643;30;20504;-81
